Time;durP1;ratioP1;P1;durP2;ratioP2;P2;SDS_P1;SDS_P2;PMS_P1;PMS_P2;Temp;Humidity;BMP_temperature;BMP_pressure;BME280_temperature;BME280_humidity;BME280_pressure;Samples;Min_cycle;Max_cycle;Signal;HPM_P1;HPM_P2
2023/05/15 00:00:38;;;;;;;1.90;1.53;;;23.10;78.00;;;;;;4967966;28;20469;-56
2023/05/15 00:03:05;;;;;;;3.00;1.60;;;23.10;78.00;;;;;;4960264;28;20467;-46
2023/05/15 00:05:31;;;;;;;1.70;1.60;;;23.00;77.90;;;;;;4966766;28;20468;-47
2023/05/15 00:07:58;;;;;;;1.90;1.47;;;23.10;78.00;;;;;;4968827;28;20468;-47
2023/05/15 00:10:26;;;;;;;4.23;1.87;;;23.00;77.90;;;;;;4966436;28;20889;-48
2023/05/15 00:12:53;;;;;;;2.70;1.70;;;23.10;78.00;;;;;;4967778;28;20474;-47
2023/05/15 00:15:19;;;;;;;1.57;1.40;;;23.00;77.90;;;;;;4966358;28;20470;-49
2023/05/15 00:17:46;;;;;;;3.27;1.70;;;23.00;78.00;;;;;;4966626;28;20464;-47
2023/05/15 00:20:13;;;;;;;2.30;1.53;;;23.00;77.90;;;;;;4962896;28;20462;-48
2023/05/15 00:22:40;;;;;;;1.47;1.33;;;23.00;77.90;;;;;;4970736;28;20815;-48
2023/05/15 00:25:07;;;;;;;1.60;1.50;;;23.00;77.90;;;;;;4967985;28;20729;-48
2023/05/15 00:27:35;;;;;;;1.27;1.17;;;23.00;77.90;;;;;;4968583;28;20473;-49
2023/05/15 00:30:02;;;;;;;2.90;1.93;;;23.00;77.90;;;;;;4967894;28;20817;-50
2023/05/15 00:32:29;;;;;;;2.33;2.13;;;23.00;78.00;;;;;;4965645;28;20484;-46
2023/05/15 00:34:55;;;;;;;2.53;1.40;;;23.00;78.00;;;;;;4964354;28;20461;-53
2023/05/15 00:37:23;;;;;;;1.60;1.40;;;23.00;78.00;;;;;;4965512;28;20557;-50
2023/05/15 00:39:50;;;;;;;4.20;1.43;;;23.00;78.00;;;;;;4967387;28;20465;-50
2023/05/15 00:42:18;;;;;;;1.97;1.53;;;23.00;78.00;;;;;;4969056;28;20479;-49
2023/05/15 00:44:48;;;;;;;2.00;1.37;;;22.90;77.90;;;;;;4966305;28;20465;-48
2023/05/15 00:47:17;;;;;;;1.87;1.47;;;22.90;77.90;;;;;;4967430;28;20514;-48
2023/05/15 00:49:44;;;;;;;1.70;1.60;;;22.90;77.90;;;;;;4968422;28;20457;-51
2023/05/15 00:52:12;;;;;;;2.40;1.60;;;22.90;78.00;;;;;;4968386;28;20847;-48
2023/05/15 00:54:38;;;;;;;1.90;1.47;;;22.90;78.00;;;;;;4958499;28;20461;-52
2023/05/15 00:57:07;;;;;;;1.63;1.53;;;22.90;78.00;;;;;;4975250;28;20445;-50
2023/05/15 00:59:34;;;;;;;1.73;1.07;;;22.90;78.00;;;;;;4972612;28;20473;-52
2023/05/15 01:02:02;;;;;;;2.33;1.50;;;22.90;78.00;;;;;;4959143;28;20544;-50
2023/05/15 01:04:29;;;;;;;2.47;1.80;;;22.90;78.00;;;;;;4970704;28;20522;-51
2023/05/15 01:06:56;;;;;;;2.43;1.67;;;22.90;78.80;;;;;;4974357;28;20456;-51
2023/05/15 01:09:24;;;;;;;1.67;1.23;;;22.90;78.00;;;;;;4969408;28;20496;-48
2023/05/15 01:11:54;;;;;;;1.70;1.60;;;22.90;78.00;;;;;;4969464;28;20457;-49
2023/05/15 01:14:21;;;;;;;1.30;1.20;;;22.90;78.00;;;;;;4970873;28;20465;-56
2023/05/15 01:16:48;;;;;;;2.33;1.43;;;22.90;78.10;;;;;;4961673;28;20484;-48
2023/05/15 01:19:16;;;;;;;1.97;1.43;;;22.90;78.00;;;;;;4972606;28;20459;-47
2023/05/15 01:22:21;;;;;;;3.00;2.57;;;22.80;77.90;;;;;;4971162;28;20842;-48
2023/05/15 01:25:03;;;;;;;1.37;1.27;;;22.90;78.10;;;;;;4963411;28;20469;-47
2023/05/15 01:27:35;;;;;;;1.83;1.73;;;22.80;78.00;;;;;;4968101;28;20465;-52
2023/05/15 01:30:08;;;;;;;1.73;1.63;;;22.80;78.00;;;;;;4967395;28;20485;-46
2023/05/15 01:32:46;;;;;;;1.47;1.37;;;22.80;78.00;;;;;;4969375;28;20984;-46
2023/05/15 01:35:19;;;;;;;1.83;1.73;;;22.80;78.00;;;;;;4970918;28;20465;-48
2023/05/15 01:37:50;;;;;;;1.67;1.43;;;22.80;78.00;;;;;;4965151;28;20854;-50
2023/05/15 01:40:18;;;;;;;1.60;1.20;;;22.80;78.10;;;;;;4972122;28;20457;-47
2023/05/15 01:42:53;;;;;;;1.73;1.33;;;22.80;78.10;;;;;;4971604;28;20893;-50
2023/05/15 01:45:23;;;;;;;1.40;1.27;;;22.80;78.10;;;;;;4962906;28;20509;-53
2023/05/15 01:47:53;;;;;;;1.97;1.50;;;22.80;78.20;;;;;;4972172;28;21016;-47
2023/05/15 01:50:21;;;;;;;1.57;1.47;;;22.80;78.20;;;;;;4970338;28;20477;-51
2023/05/15 01:52:51;;;;;;;1.50;1.33;;;22.80;78.10;;;;;;4973281;28;20461;-47
2023/05/15 01:55:19;;;;;;;2.50;1.47;;;22.80;78.10;;;;;;4970289;28;20461;-48
2023/05/15 01:57:50;;;;;;;1.40;1.30;;;22.80;78.20;;;;;;4972487;28;20464;-52
2023/05/15 02:00:17;;;;;;;1.73;1.40;;;22.80;78.20;;;;;;4965403;28;20830;-49
2023/05/15 02:02:45;;;;;;;1.70;1.57;;;22.80;78.20;;;;;;4968284;28;20504;-51
2023/05/15 02:05:13;;;;;;;1.60;1.33;;;22.70;78.10;;;;;;4962493;28;20462;-49
2023/05/15 02:07:42;;;;;;;1.57;1.47;;;22.70;78.10;;;;;;4971709;28;20965;-46
2023/05/15 02:10:10;;;;;;;2.03;1.40;;;22.70;78.10;;;;;;4968581;28;20461;-49
2023/05/15 02:12:38;;;;;;;1.33;1.13;;;22.70;78.10;;;;;;4972087;28;20983;-53
2023/05/15 02:15:09;;;;;;;3.17;1.67;;;22.70;78.10;;;;;;4970574;28;20461;-54
2023/05/15 02:17:36;;;;;;;2.70;1.40;;;22.70;78.10;;;;;;4967600;28;20469;-50
2023/05/15 02:20:04;;;;;;;3.10;1.43;;;22.70;78.10;;;;;;4962901;28;20461;-51
2023/05/15 02:22:31;;;;;;;1.87;1.30;;;22.70;78.10;;;;;;4966231;28;20497;-47
2023/05/15 02:24:58;;;;;;;1.50;1.40;;;22.70;78.10;;;;;;4972332;28;20477;-49
2023/05/15 02:27:27;;;;;;;1.50;1.40;;;22.70;78.20;;;;;;4966308;28;20457;-51
2023/05/15 02:30:15;;;;;;;1.80;1.70;;;22.70;78.20;;;;;;4968203;28;20465;-49
2023/05/15 02:32:49;;;;;;;1.30;1.20;;;22.70;78.20;;;;;;4964112;28;20961;-47
2023/05/15 02:35:22;;;;;;;1.40;1.30;;;22.70;78.30;;;;;;4972709;28;20470;-52
2023/05/15 02:37:52;;;;;;;1.60;1.47;;;22.70;78.30;;;;;;4971564;28;20842;-47
2023/05/15 02:40:20;;;;;;;1.50;1.40;;;22.70;78.30;;;;;;4970442;28;21004;-53
2023/05/15 02:42:47;;;;;;;1.50;1.33;;;22.70;78.30;;;;;;4969685;28;21292;-51
2023/05/15 02:45:17;;;;;;;1.37;1.20;;;22.60;78.20;;;;;;4969403;28;20830;-48
2023/05/15 02:47:44;;;;;;;1.67;1.53;;;22.60;78.20;;;;;;4966319;28;20453;-49
2023/05/15 02:50:11;;;;;;;2.00;1.70;;;22.60;78.20;;;;;;4969956;28;20485;-49
2023/05/15 02:52:38;;;;;;;2.03;1.50;;;22.60;78.20;;;;;;4969997;28;20461;-51
2023/05/15 02:55:05;;;;;;;1.30;1.20;;;22.60;78.20;;;;;;4958377;28;20987;-48
2023/05/15 02:57:32;;;;;;;1.30;1.20;;;22.60;78.30;;;;;;4970193;28;20461;-48
2023/05/15 02:59:59;;;;;;;2.33;1.80;;;22.60;78.30;;;;;;4968528;28;20815;-52
2023/05/15 03:02:27;;;;;;;1.30;1.20;;;22.60;78.20;;;;;;4969818;28;20589;-48
2023/05/15 03:04:54;;;;;;;1.60;1.50;;;22.60;78.20;;;;;;4967239;28;20470;-49
2023/05/15 03:07:21;;;;;;;1.90;1.30;;;22.60;78.30;;;;;;4970480;28;20804;-46
2023/05/15 03:09:47;;;;;;;1.77;1.50;;;22.60;78.30;;;;;;4967533;28;20469;-46
2023/05/15 03:12:14;;;;;;;1.63;1.53;;;22.60;78.30;;;;;;4970532;28;20472;-51
2023/05/15 03:14:40;;;;;;;1.27;1.17;;;22.60;78.30;;;;;;4970775;28;20469;-46
2023/05/15 03:17:07;;;;;;;2.17;1.47;;;22.60;78.30;;;;;;4971189;28;20469;-47
2023/05/15 03:19:35;;;;;;;2.23;1.77;;;22.60;78.30;;;;;;4962526;28;20472;-46
2023/05/15 03:22:02;;;;;;;1.50;1.40;;;22.60;78.20;;;;;;4971386;28;20482;-46
2023/05/15 03:24:28;;;;;;;1.33;1.23;;;22.60;78.30;;;;;;4963088;28;20462;-46
2023/05/15 03:26:55;;;;;;;1.83;1.73;;;22.60;78.30;;;;;;4970919;28;20442;-48
2023/05/15 03:29:22;;;;;;;1.40;1.13;;;22.60;78.40;;;;;;4970369;28;20838;-53
2023/05/15 03:31:48;;;;;;;1.23;1.13;;;22.60;78.40;;;;;;4964664;28;20461;-52
2023/05/15 03:34:15;;;;;;;1.83;1.60;;;22.50;78.30;;;;;;4968316;28;20468;-51
2023/05/15 03:36:43;;;;;;;1.63;1.30;;;22.50;78.30;;;;;;4970340;28;20952;-49
2023/05/15 03:39:10;;;;;;;1.33;1.23;;;22.50;78.30;;;;;;4971803;28;20456;-48
2023/05/15 03:41:36;;;;;;;1.57;1.40;;;22.50;78.30;;;;;;4965967;28;20485;-50
2023/05/15 03:44:03;;;;;;;1.50;1.40;;;22.50;78.30;;;;;;4964683;28;20989;-49
2023/05/15 03:46:30;;;;;;;1.40;1.13;;;22.50;78.30;;;;;;4963907;28;20505;-53
2023/05/15 03:48:56;;;;;;;1.80;1.40;;;22.50;78.30;;;;;;4971343;28;20450;-49
2023/05/15 03:51:23;;;;;;;1.40;1.30;;;22.50;78.30;;;;;;4970372;28;20481;-46
2023/05/15 03:53:52;;;;;;;1.40;1.27;;;22.50;78.30;;;;;;4969175;28;21099;-48
2023/05/15 03:56:20;;;;;;;1.47;1.37;;;22.50;78.30;;;;;;4964781;28;20466;-48
2023/05/15 03:58:46;;;;;;;1.90;1.33;;;22.50;78.30;;;;;;4960419;28;20461;-51
2023/05/15 04:01:13;;;;;;;1.40;1.30;;;22.50;78.30;;;;;;4965103;28;20469;-48
2023/05/15 04:03:40;;;;;;;2.00;1.33;;;22.50;78.30;;;;;;4968090;28;20500;-49
2023/05/15 04:06:07;;;;;;;1.57;1.47;;;22.50;78.30;;;;;;4967394;28;20454;-48
2023/05/15 04:08:33;;;;;;;1.93;1.43;;;22.50;78.30;;;;;;4964642;28;20465;-51
2023/05/15 04:11:01;;;;;;;1.63;1.53;;;22.50;78.30;;;;;;4966832;28;20465;-51
2023/05/15 04:13:28;;;;;;;1.43;1.30;;;22.50;78.40;;;;;;4969784;28;20461;-50
2023/05/15 04:15:56;;;;;;;1.47;1.37;;;22.50;78.40;;;;;;4956309;28;20465;-51
2023/05/15 04:18:22;;;;;;;1.50;1.40;;;22.50;78.40;;;;;;4962825;28;20621;-46
2023/05/15 04:20:49;;;;;;;1.50;1.40;;;22.50;78.50;;;;;;4969947;28;20480;-47
2023/05/15 04:23:16;;;;;;;1.83;1.57;;;22.50;78.30;;;;;;4966173;28;20857;-49
2023/05/15 04:25:45;;;;;;;1.30;1.17;;;22.50;78.40;;;;;;4962119;28;20468;-47
2023/05/15 04:28:13;;;;;;;1.30;1.20;;;22.40;78.30;;;;;;4966733;28;20457;-52
2023/05/15 04:30:40;;;;;;;2.00;1.50;;;22.40;78.30;;;;;;4966139;28;20458;-53
2023/05/15 04:33:07;;;;;;;1.40;1.07;;;22.40;78.30;;;;;;4964459;28;20469;-50
2023/05/15 04:35:34;;;;;;;1.20;1.10;;;22.40;78.40;;;;;;4963049;28;20462;-46
2023/05/15 04:38:01;;;;;;;1.20;1.10;;;22.40;78.30;;;;;;4969493;28;20485;-50
2023/05/15 04:40:28;;;;;;;1.50;1.40;;;22.40;78.30;;;;;;4966478;28;20512;-46
2023/05/15 04:42:54;;;;;;;1.40;1.30;;;22.40;78.40;;;;;;4966762;28;20492;-48
2023/05/15 04:45:23;;;;;;;1.50;1.33;;;22.40;78.40;;;;;;4963928;28;20470;-49
2023/05/15 04:47:50;;;;;;;1.77;1.67;;;22.40;78.40;;;;;;4957196;28;20822;-52
2023/05/15 04:50:16;;;;;;;1.47;1.30;;;22.40;78.40;;;;;;4954705;28;20474;-52
2023/05/15 04:52:44;;;;;;;1.53;1.40;;;22.40;78.40;;;;;;4955144;28;20469;-50
2023/05/15 04:55:11;;;;;;;1.40;1.30;;;22.40;78.50;;;;;;4968441;28;20980;-48
2023/05/15 04:57:37;;;;;;;1.67;1.30;;;22.40;78.40;;;;;;4971257;28;20473;-48
2023/05/15 05:00:09;;;;;;;1.40;1.30;;;22.40;78.40;;;;;;4964838;28;20453;-49
2023/05/15 05:02:37;;;;;;;1.70;1.50;;;22.40;78.40;;;;;;4960444;28;20481;-48
2023/05/15 05:05:04;;;;;;;1.30;1.20;;;22.40;78.40;;;;;;4962244;28;20457;-47
2023/05/15 05:07:31;;;;;;;1.30;1.20;;;22.40;78.40;;;;;;4970302;28;21025;-49
2023/05/15 05:09:58;;;;;;;1.40;1.20;;;22.40;78.40;;;;;;4969057;28;20465;-48
2023/05/15 05:12:25;;;;;;;1.50;1.40;;;22.40;78.50;;;;;;4970406;28;20462;-49
2023/05/15 05:14:51;;;;;;;1.40;1.27;;;22.40;78.50;;;;;;4961024;28;20964;-48
2023/05/15 05:17:18;;;;;;;1.70;1.60;;;22.30;78.30;;;;;;4968098;28;20461;-51
2023/05/15 05:19:46;;;;;;;2.03;1.47;;;22.30;78.40;;;;;;4965615;28;20468;-50
2023/05/15 05:22:13;;;;;;;1.60;1.33;;;22.30;78.40;;;;;;4970609;28;20465;-52
2023/05/15 05:24:39;;;;;;;1.50;1.17;;;22.30;78.40;;;;;;4966669;28;20504;-47
2023/05/15 05:27:06;;;;;;;1.27;1.10;;;22.30;78.40;;;;;;4967586;28;20489;-52
2023/05/15 05:29:33;;;;;;;1.33;1.10;;;22.30;78.40;;;;;;4968037;28;20465;-46
2023/05/15 05:32:00;;;;;;;1.30;1.20;;;22.30;78.40;;;;;;4965047;28;20450;-49
2023/05/15 05:34:28;;;;;;;1.60;1.20;;;22.40;78.50;;;;;;4969151;28;20469;-49
2023/05/15 05:36:56;;;;;;;1.30;1.20;;;22.40;78.70;;;;;;4962887;28;20492;-49
2023/05/15 05:39:23;;;;;;;1.60;1.40;;;22.40;78.80;;;;;;4969345;28;20841;-46
2023/05/15 05:41:49;;;;;;;1.33;1.17;;;22.30;78.60;;;;;;4970119;28;20465;-47
2023/05/15 05:44:16;;;;;;;1.63;1.43;;;22.40;78.90;;;;;;4970640;28;20560;-46
2023/05/15 05:46:44;;;;;;;2.03;1.50;;;22.40;78.90;;;;;;4971475;28;20846;-47
2023/05/15 05:49:10;;;;;;;2.00;1.27;;;22.40;78.90;;;;;;4972641;28;20469;-47
2023/05/15 05:51:37;;;;;;;1.37;1.17;;;22.40;78.90;;;;;;4964462;28;20991;-47
2023/05/15 05:54:06;;;;;;;1.50;1.40;;;22.40;78.90;;;;;;4972058;28;20470;-47
2023/05/15 05:56:32;;;;;;;1.50;1.40;;;22.40;78.80;;;;;;4970114;28;20462;-49
2023/05/15 05:59:00;;;;;;;1.40;1.30;;;22.40;78.90;;;;;;4964327;28;20503;-47
2023/05/15 06:01:27;;;;;;;1.30;1.20;;;22.40;78.90;;;;;;4969022;28;20504;-50
2023/05/15 06:03:54;;;;;;;1.30;1.20;;;22.40;78.90;;;;;;4970437;28;20489;-51
2023/05/15 06:06:21;;;;;;;1.43;1.07;;;22.40;78.90;;;;;;4968772;28;20462;-50
2023/05/15 06:08:47;;;;;;;1.50;1.40;;;22.40;78.90;;;;;;4972657;28;20462;-47
2023/05/15 06:11:15;;;;;;;1.60;1.20;;;22.40;78.90;;;;;;4972853;28;20889;-47
2023/05/15 06:13:43;;;;;;;1.30;1.20;;;22.40;78.80;;;;;;4968031;28;20465;-47
2023/05/15 06:16:09;;;;;;;1.50;1.30;;;22.40;78.80;;;;;;4969971;28;20520;-47
2023/05/15 06:18:36;;;;;;;1.20;0.90;;;22.40;78.80;;;;;;4967743;28;20965;-56
2023/05/15 06:21:03;;;;;;;1.43;1.27;;;22.40;78.80;;;;;;4964861;28;20454;-51
2023/05/15 06:23:30;;;;;;;1.33;1.23;;;22.40;78.80;;;;;;4969374;28;20992;-47
2023/05/15 06:25:57;;;;;;;1.50;1.23;;;22.50;79.00;;;;;;4969950;28;21016;-51
2023/05/15 06:28:25;;;;;;;1.83;1.30;;;22.50;78.90;;;;;;4969847;28;20469;-51
2023/05/15 06:30:52;;;;;;;1.10;1.00;;;22.50;78.90;;;;;;4962739;28;20462;-50
2023/05/15 06:33:20;;;;;;;1.40;1.30;;;22.50;78.90;;;;;;4973434;28;20453;-52
2023/05/15 06:35:47;;;;;;;1.20;0.93;;;22.40;78.80;;;;;;4966683;28;20477;-52
2023/05/15 06:38:14;;;;;;;1.60;1.33;;;22.40;78.80;;;;;;4969499;28;20481;-52
2023/05/15 06:40:40;;;;;;;1.20;1.10;;;22.50;78.90;;;;;;4966940;28;20472;-48
2023/05/15 06:43:07;;;;;;;1.87;1.67;;;22.50;78.90;;;;;;4970602;28;20486;-50
2023/05/15 06:45:35;;;;;;;1.20;1.00;;;22.40;78.80;;;;;;4963481;28;20463;-53
2023/05/15 06:48:02;;;;;;;1.10;1.00;;;22.50;79.60;;;;;;4971214;28;20473;-51
2023/05/15 06:50:29;;;;;;;1.70;1.60;;;22.50;79.00;;;;;;4966452;28;20496;-57
2023/05/15 06:52:56;;;;;;;5.17;2.10;;;22.40;79.10;;;;;;4967829;28;20458;-52
2023/05/15 06:55:22;;;;;;;3.87;2.33;;;22.40;78.80;;;;;;4971522;28;20461;-52
2023/05/15 06:57:49;;;;;;;6.40;3.67;;;22.40;79.30;;;;;;4971035;28;20469;-48
2023/05/15 07:00:17;;;;;;;9.23;6.17;;;22.40;79.60;;;;;;4963196;28;20957;-55
2023/05/15 07:02:45;;;;;;;7.50;6.90;;;22.40;79.80;;;;;;4972001;28;20464;-54
2023/05/15 07:05:11;;;;;;;7.67;6.97;;;22.50;79.80;;;;;;4957997;28;20834;-50
2023/05/15 07:07:38;;;;;;;11.67;10.47;;;22.50;79.90;;;;;;4962923;28;20462;-54
2023/05/15 07:10:06;;;;;;;12.07;10.97;;;22.40;80.00;;;;;;4965198;28;20567;-51
2023/05/15 07:12:33;;;;;;;18.27;13.83;;;22.40;80.10;;;;;;4966415;28;20477;-52
2023/05/15 07:15:00;;;;;;;15.90;14.30;;;22.40;79.90;;;;;;4967638;28;20484;-49
2023/05/15 07:17:26;;;;;;;14.30;13.00;;;22.30;79.60;;;;;;4964084;28;21047;-46
2023/05/15 07:19:54;;;;;;;11.83;10.60;;;22.30;79.50;;;;;;4970092;28;20462;-47
2023/05/15 07:22:21;;;;;;;8.90;8.10;;;22.30;79.50;;;;;;4966483;28;20496;-46
2023/05/15 07:24:48;;;;;;;10.00;9.10;;;22.30;79.30;;;;;;4969737;28;20485;-49
2023/05/15 07:27:14;;;;;;;9.70;7.77;;;22.30;79.20;;;;;;4966910;28;20466;-46
2023/05/15 07:29:41;;;;;;;8.07;7.37;;;22.40;79.00;;;;;;4963487;28;20473;-52
2023/05/15 07:32:08;;;;;;;5.67;5.17;;;22.40;79.10;;;;;;4969318;28;21085;-47
2023/05/15 07:34:34;;;;;;;5.43;4.93;;;22.40;79.50;;;;;;4970412;28;20469;-46
2023/05/15 07:37:02;;;;;;;5.53;4.40;;;22.40;79.90;;;;;;4964308;28;20492;-50
2023/05/15 07:39:29;;;;;;;6.37;5.77;;;22.30;79.90;;;;;;4966319;28;20462;-47
2023/05/15 07:41:56;;;;;;;7.60;4.63;;;22.30;80.40;;;;;;4967389;28;20462;-50
2023/05/15 07:44:22;;;;;;;5.57;5.17;;;22.30;80.50;;;;;;4970343;28;20849;-49
2023/05/15 07:46:49;;;;;;;5.60;5.07;;;22.30;80.50;;;;;;4961912;28;20485;-49
2023/05/15 07:49:16;;;;;;;5.37;4.97;;;22.30;80.60;;;;;;4967264;28;20824;-48
2023/05/15 07:51:42;;;;;;;9.57;5.50;;;22.30;80.60;;;;;;4971047;28;20953;-47
2023/05/15 07:54:10;;;;;;;5.87;5.30;;;22.30;80.70;;;;;;4967824;28;20543;-51
2023/05/15 07:56:37;;;;;;;6.23;4.73;;;22.30;80.60;;;;;;4968374;28;20466;-51
2023/05/15 07:59:04;;;;;;;8.63;5.77;;;22.30;80.60;;;;;;4960272;28;20465;-50
2023/05/15 08:01:33;;;;;;;8.13;5.60;;;22.30;80.60;;;;;;4968457;28;21072;-48
2023/05/15 08:03:59;;;;;;;5.60;5.10;;;22.30;80.70;;;;;;4963942;28;20984;-48
2023/05/15 08:06:26;;;;;;;5.50;4.97;;;22.20;80.70;;;;;;4969671;28;20953;-48
2023/05/15 08:08:53;;;;;;;4.37;4.07;;;22.20;80.70;;;;;;4970571;28;20457;-49
2023/05/15 08:11:21;;;;;;;6.87;6.27;;;22.20;80.70;;;;;;4965562;28;20466;-50
2023/05/15 08:13:47;;;;;;;6.40;5.80;;;22.20;80.70;;;;;;4966826;28;20505;-50
2023/05/15 08:16:14;;;;;;;6.27;5.77;;;22.20;80.70;;;;;;4965733;28;20466;-51
2023/05/15 08:18:41;;;;;;;6.33;5.20;;;22.20;80.70;;;;;;4966682;28;20469;-48
2023/05/15 08:21:08;;;;;;;6.07;5.47;;;22.20;80.80;;;;;;4970696;28;20449;-51
2023/05/15 08:23:34;;;;;;;6.30;5.80;;;22.20;80.80;;;;;;4967330;28;20488;-50
2023/05/15 08:26:01;;;;;;;8.07;7.33;;;22.20;80.80;;;;;;4963348;28;20462;-51
2023/05/15 08:28:29;;;;;;;6.70;5.60;;;22.20;80.80;;;;;;4969626;28;20460;-50
2023/05/15 08:30:56;;;;;;;6.70;6.10;;;22.20;81.00;;;;;;4963394;28;20845;-47
2023/05/15 08:33:22;;;;;;;6.70;6.10;;;22.20;81.00;;;;;;4958952;28;20469;-49
2023/05/15 08:35:50;;;;;;;7.17;6.47;;;22.20;80.80;;;;;;4965842;28;20464;-46
2023/05/15 08:38:17;;;;;;;6.00;5.50;;;22.20;80.70;;;;;;4964076;28;20509;-48
2023/05/15 08:40:47;;;;;;;5.60;5.20;;;22.20;80.70;;;;;;4967301;28;20453;-48
2023/05/15 08:43:17;;;;;;;9.93;6.10;;;22.30;80.60;;;;;;4966541;28;20468;-49
2023/05/15 08:45:45;;;;;;;5.23;4.83;;;22.30;80.60;;;;;;4965272;28;20500;-49
2023/05/15 08:48:19;;;;;;;5.47;4.87;;;22.30;80.40;;;;;;4966294;28;20478;-48
2023/05/15 08:50:47;;;;;;;5.20;4.80;;;22.30;80.50;;;;;;4968405;28;20477;-47
2023/05/15 08:53:14;;;;;;;6.10;5.60;;;22.30;80.40;;;;;;4967011;28;20465;-50
2023/05/15 08:55:42;;;;;;;5.53;5.10;;;22.30;80.40;;;;;;4953200;28;20474;-50
2023/05/15 08:58:09;;;;;;;4.90;4.50;;;22.40;80.50;;;;;;4953146;28;20461;-50
2023/05/15 09:00:36;;;;;;;4.60;4.20;;;22.40;80.50;;;;;;4961518;28;20457;-49
2023/05/15 09:03:05;;;;;;;6.13;5.53;;;22.40;80.40;;;;;;4961551;28;20461;-52
2023/05/15 09:05:32;;;;;;;5.20;4.80;;;22.40;80.40;;;;;;4962023;28;20524;-52
2023/05/15 09:08:00;;;;;;;5.30;4.90;;;22.40;80.40;;;;;;4965897;28;20589;-51
2023/05/15 09:10:28;;;;;;;4.90;4.50;;;22.40;81.10;;;;;;4959671;28;20553;-49
2023/05/15 09:12:56;;;;;;;5.87;4.70;;;22.40;80.30;;;;;;4972721;28;20461;-48
2023/05/15 09:15:24;;;;;;;13.23;8.30;;;22.50;80.30;;;;;;4966751;28;20465;-49
2023/05/15 09:17:52;;;;;;;7.60;6.80;;;22.40;80.50;;;;;;4958180;28;21010;-51
2023/05/15 09:20:28;;;;;;;12.07;6.77;;;22.40;80.60;;;;;;4959252;28;20826;-50
2023/05/15 09:22:55;;;;;;;7.67;6.70;;;22.40;81.20;;;;;;4959992;28;20834;-48
2023/05/15 09:25:36;;;;;;;11.67;8.30;;;22.40;81.20;;;;;;4954313;28;20493;-50
2023/05/15 09:28:03;;;;;;;8.30;7.40;;;22.40;81.00;;;;;;4955407;28;20891;-49
2023/05/15 09:30:30;;;;;;;7.57;6.97;;;22.40;80.80;;;;;;4951576;28;20453;-49
2023/05/15 09:33:00;;;;;;;6.63;6.13;;;22.40;80.90;;;;;;4961391;28;20517;-49
2023/05/15 09:35:33;;;;;;;6.90;6.33;;;22.40;80.90;;;;;;4958339;28;20581;-49
2023/05/15 09:38:01;;;;;;;8.97;8.17;;;22.40;81.00;;;;;;4955640;28;20474;-51
2023/05/15 09:40:30;;;;;;;7.60;6.90;;;22.40;81.10;;;;;;4955361;28;20472;-48
2023/05/15 09:42:56;;;;;;;7.03;6.33;;;22.40;81.30;;;;;;4956326;28;20597;-50
2023/05/15 09:45:25;;;;;;;7.20;6.50;;;22.40;81.10;;;;;;4966715;28;21024;-53
2023/05/15 09:47:52;;;;;;;8.23;6.50;;;22.50;81.10;;;;;;4957222;28;20807;-49
2023/05/15 09:50:23;;;;;;;7.67;5.97;;;22.50;81.00;;;;;;4955793;28;20485;-49
2023/05/15 09:52:51;;;;;;;5.73;5.23;;;22.50;81.00;;;;;;4960250;28;21138;-53
2023/05/15 09:55:19;;;;;;;6.77;6.13;;;22.50;80.90;;;;;;4954477;28;20473;-53
2023/05/15 09:58:04;;;;;;;11.10;6.70;;;22.50;81.00;;;;;;4953919;28;20821;-55
2023/05/15 10:00:31;;;;;;;6.47;5.87;;;22.60;81.40;;;;;;4953672;28;20465;-48
2023/05/15 10:03:00;;;;;;;6.40;5.60;;;22.60;81.30;;;;;;4959259;28;22503;-54
2023/05/15 10:05:27;;;;;;;5.43;4.93;;;22.60;81.50;;;;;;4958887;28;20536;-54
2023/05/15 10:07:56;;;;;;;5.87;5.30;;;22.60;81.70;;;;;;4956963;28;20473;-53
2023/05/15 10:10:23;;;;;;;10.67;6.00;;;22.60;81.70;;;;;;4967942;28;20492;-48
2023/05/15 10:12:51;;;;;;;6.13;5.63;;;22.70;81.70;;;;;;4960392;28;20465;-53
2023/05/15 10:15:18;;;;;;;6.90;5.50;;;22.70;81.80;;;;;;4967997;28;20465;-53
2023/05/15 10:17:47;;;;;;;7.33;5.90;;;22.70;81.90;;;;;;4964710;28;20465;-53
2023/05/15 10:20:15;;;;;;;5.77;5.13;;;22.70;81.80;;;;;;4952394;28;20469;-56
2023/05/15 10:22:46;;;;;;;5.40;4.90;;;22.70;81.80;;;;;;4962780;28;20476;-54
2023/05/15 10:25:20;;;;;;;5.43;4.70;;;22.80;81.90;;;;;;4955791;28;20473;-55
2023/05/15 10:27:47;;;;;;;6.50;6.00;;;22.80;82.10;;;;;;4953946;28;20461;-49
2023/05/15 10:30:16;;;;;;;5.60;5.10;;;22.80;82.00;;;;;;4949674;28;20584;-55
2023/05/15 10:32:44;;;;;;;6.27;5.77;;;22.90;82.10;;;;;;4957766;28;20561;-51
2023/05/15 10:35:11;;;;;;;5.87;5.37;;;22.90;82.00;;;;;;4954025;28;20973;-48
2023/05/15 10:37:39;;;;;;;6.10;4.90;;;22.90;82.00;;;;;;4964928;28;20482;-50
2023/05/15 10:40:08;;;;;;;5.90;4.23;;;22.90;82.00;;;;;;4966651;28;20493;-47
2023/05/15 10:42:38;;;;;;;5.53;4.90;;;23.00;82.00;;;;;;4956133;28;20540;-47
2023/05/15 10:45:07;;;;;;;6.03;5.20;;;23.00;82.10;;;;;;4961250;28;20513;-50
2023/05/15 10:47:35;;;;;;;5.17;4.77;;;23.00;81.90;;;;;;4956376;28;20460;-50
2023/05/15 10:50:02;;;;;;;4.93;4.53;;;23.10;81.90;;;;;;4962431;28;20468;-48
2023/05/15 10:52:28;;;;;;;5.53;5.13;;;23.10;82.00;;;;;;4954472;28;20458;-49
2023/05/15 10:54:55;;;;;;;5.07;4.67;;;23.10;81.80;;;;;;4951641;28;20465;-51
2023/05/15 10:57:22;;;;;;;5.63;5.20;;;23.20;81.90;;;;;;4955958;28;20501;-49
2023/05/15 10:59:50;;;;;;;4.30;3.90;;;23.20;81.80;;;;;;4953833;28;20803;-49
2023/05/15 11:02:22;;;;;;;5.10;4.67;;;23.20;81.70;;;;;;4953399;28;20513;-55
2023/05/15 11:04:53;;;;;;;5.60;4.43;;;23.20;81.70;;;;;;4956760;28;20489;-55
2023/05/15 11:07:20;;;;;;;5.63;5.20;;;23.30;81.70;;;;;;4961668;28;20465;-48
2023/05/15 11:09:47;;;;;;;5.50;5.10;;;23.30;81.70;;;;;;4951980;28;20461;-48
2023/05/15 11:12:13;;;;;;;5.27;4.87;;;23.30;81.70;;;;;;4953774;28;20470;-54
2023/05/15 11:14:42;;;;;;;5.63;5.13;;;23.30;81.60;;;;;;4955552;28;20504;-50
2023/05/15 11:17:13;;;;;;;5.00;4.60;;;23.40;81.70;;;;;;4955699;28;20465;-48
2023/05/15 11:19:57;;;;;;;4.47;4.10;;;23.40;81.60;;;;;;4955484;28;20494;-49
2023/05/15 11:22:29;;;;;;;5.20;4.77;;;23.40;81.40;;;;;;4957374;28;20536;-51
2023/05/15 11:24:59;;;;;;;5.03;4.53;;;23.40;81.50;;;;;;4954503;28;21042;-52
2023/05/15 11:27:27;;;;;;;5.40;5.00;;;23.40;81.30;;;;;;4966975;28;20803;-48
2023/05/15 11:30:07;;;;;;;4.47;4.17;;;23.50;81.50;;;;;;4967958;28;20487;-50
2023/05/15 11:32:51;;;;;;;4.57;4.17;;;23.50;81.40;;;;;;4967304;28;20953;-46
2023/05/15 11:35:21;;;;;;;5.77;4.50;;;23.50;81.10;;;;;;4965757;28;20484;-47
2023/05/15 11:37:50;;;;;;;4.20;3.80;;;23.50;81.20;;;;;;4951365;28;20583;-53
2023/05/15 11:40:21;;;;;;;4.90;4.40;;;23.60;81.20;;;;;;4957950;28;20966;-50
2023/05/15 11:43:08;;;;;;;4.97;4.57;;;23.60;81.20;;;;;;4964496;28;20465;-53
2023/05/15 11:45:37;;;;;;;4.90;4.50;;;23.60;81.00;;;;;;4961998;28;20865;-49
2023/05/15 11:48:12;;;;;;;4.53;4.13;;;23.60;81.10;;;;;;4965710;28;20458;-47
2023/05/15 11:50:38;;;;;;;5.40;5.00;;;23.60;81.10;;;;;;4966966;28;20480;-50
2023/05/15 11:53:06;;;;;;;5.20;4.80;;;23.60;81.10;;;;;;4964741;28;20460;-48
2023/05/15 11:55:35;;;;;;;5.13;4.73;;;23.70;82.00;;;;;;4962181;28;20482;-50
2023/05/15 11:58:03;;;;;;;4.50;4.10;;;23.70;80.60;;;;;;4962126;28;20457;-53
2023/05/15 12:00:29;;;;;;;4.37;3.87;;;23.70;81.10;;;;;;4967347;28;20461;-54
2023/05/15 12:02:56;;;;;;;4.80;4.40;;;23.70;81.00;;;;;;4969885;28;20468;-56
2023/05/15 12:05:24;;;;;;;4.60;4.20;;;23.70;80.90;;;;;;4965614;28;20481;-53
2023/05/15 12:07:51;;;;;;;4.90;4.50;;;23.80;81.00;;;;;;4970152;28;20462;-51
2023/05/15 12:10:18;;;;;;;4.17;3.77;;;23.80;81.00;;;;;;4965407;28;20496;-54
2023/05/15 12:12:45;;;;;;;4.93;4.53;;;23.80;81.00;;;;;;4968445;28;20473;-49
2023/05/15 12:15:14;;;;;;;5.10;4.70;;;23.80;80.90;;;;;;4966151;28;20621;-55
2023/05/15 12:17:41;;;;;;;4.73;4.33;;;23.80;80.90;;;;;;4965759;28;20469;-51
2023/05/15 12:20:10;;;;;;;4.37;4.07;;;23.80;80.90;;;;;;4965751;28;20465;-50
2023/05/15 12:22:40;;;;;;;4.43;4.13;;;23.80;80.80;;;;;;4959591;28;20526;-52
2023/05/15 12:25:08;;;;;;;4.67;4.27;;;23.90;81.00;;;;;;4968090;28;20473;-48
2023/05/15 12:27:35;;;;;;;4.00;3.70;;;23.90;80.90;;;;;;4965186;28;20457;-48
2023/05/15 12:30:04;;;;;;;3.97;3.67;;;23.90;80.90;;;;;;4962813;28;20461;-53
2023/05/15 12:32:32;;;;;;;4.80;4.40;;;23.90;80.90;;;;;;4962884;28;20839;-49
2023/05/15 12:34:59;;;;;;;13.80;12.40;;;23.90;80.80;;;;;;4964640;28;20469;-49
2023/05/15 12:37:26;;;;;;;11.77;10.67;;;23.90;79.20;;;;;;4964089;28;20643;-53
2023/05/15 12:39:56;;;;;;;12.40;10.30;;;23.80;76.50;;;;;;4965963;28;20468;-51
2023/05/15 12:42:23;;;;;;;9.27;8.47;;;23.70;76.60;;;;;;4964440;28;20500;-50
2023/05/15 12:44:54;;;;;;;9.97;9.07;;;23.70;76.70;;;;;;4965451;28;20468;-55
2023/05/15 12:47:25;;;;;;;10.80;9.33;;;23.60;76.70;;;;;;4964123;28;20469;-51
2023/05/15 12:49:55;;;;;;;9.47;8.60;;;23.60;76.70;;;;;;4967100;28;20461;-50